LIRNLIRU

Guest
Details From LIRN - Naples Capodichino
To LIRU - Urbe
Flight Number -
Tags Routegen Generated
Created
Modified
Stats Distance 108 nm / 201 km
Max Altitude 300 ft / 91 m
Waypoints 11
Social Downloads 2
Likes 0
Share VATSIM

Download

Looking for another format? Having issues loading an existing format? Contact us
Advertisement - Login to hide

Notes

Departing runway 23 LIRN. Arriving runway 16 LIRU.

Route

LIRN +40.84_+014.20 +40.83_+014.12 +40.84_+014.05 +40.86_+013.98 +40.91_+013.93 +41.28_+013.40 +41.81_+012.65 +41.83_+012.59 +41.88_+012.54 LIRU

ID Type Via Altitude Latitude Longitude Leg Dist Tot Dist Heading (true) Name
O LIRN APT - 0 ft / 0 m 40.87979˚ 14.27754˚ - 0 nm - -
+40.84_+014.20 LATLON - 300 ft / 91 m 40.84146˚ 14.19638˚ 4 nm 4 nm 238° / 238° -
+40.83_+014.12 LATLON - 300 ft / 91 m 40.82945˚ 14.12153˚ 3 nm 7 nm 258° / 258° -
+40.84_+014.05 LATLON - 300 ft / 91 m 40.83753˚ 14.04576˚ 3 nm 11 nm 278° / 278° -
+40.86_+013.98 LATLON - 300 ft / 91 m 40.86473˚ 13.97820˚ 3 nm 14 nm 298° / 298° -
+40.91_+013.93 LATLON - 300 ft / 91 m 40.90777˚ 13.92699˚ 3 nm 18 nm 318° / 318° -
+41.28_+013.40 LATLON - 300 ft / 91 m 41.28340˚ 13.39879˚ 32 nm 51 nm 314° / 313° -
+41.81_+012.65 LATLON - 300 ft / 91 m 41.80565˚ 12.65353˚ 45 nm 97 nm 313° / 313° -
+41.83_+012.59 LATLON - 300 ft / 91 m 41.83497˚ 12.58654˚ 3 nm 100 nm 300° / 300° -
+41.88_+012.54 LATLON - 300 ft / 91 m 41.87959˚ 12.53702˚ 3 nm 103 nm 320° / 320° -
O LIRU APT - 0 ft / 0 m 41.94777˚ 12.50442˚ 4 nm 108 nm 340° / 340° Urbe

Altitude Profile

Advertisement - Login to hide

LIRN

Details ICAO LIRN (NAP)
Name Naples Capodichino
Region Italy
Timezone Europe/Rome (UTC+1.0)
Stats Elevation 294 ft / 90 m (AMSL)
Location 40.886032° 14.290783°
Runways 1
Magnetic Variation 3.307° E

METAR

LIRN 131120Z 20010KT 160V240 6000 RA FEW020 BKN030 14/12 Q1018 NOSIG

Decode

TAF

TAF TAF LIRN 130500Z 1306/1406 22013KT 9999 SCT020 BKN040 BECMG 1306/1309 29013KT TEMPO 1306/1312 4000 SHRA

Decode

Departure Runways

ID Width Length Bearing (true) Bearing (mag) Surface Threshold Offset Overrun Length
06 148 ft / 45 m 8,612 ft / 2,625 m 58.03° 54.72° Asphalt 1,309 ft / 399 m 0 ft / 0 m
24 148 ft / 45 m 8,612 ft / 2,625 m 238.05° 234.74° Asphalt 624 ft / 190 m 0 ft / 0 m

LIRU

Details ICAO LIRU
Name Urbe
Region Italy
Timezone Europe/Rome (UTC+1.0)
Stats Elevation 55 ft / 17 m (AMSL)
Location 41.952376° 12.502250°
Runways 1
Magnetic Variation 3.048° E

METAR

LIRU 131050Z 21004KT 9999 FEW020 SCT040 14/10 Q1018

Decode

TAF

Not found

Destination Runways

ID Width Length Bearing (true) Bearing (mag) Surface Threshold Offset Overrun Length
16 98 ft / 30 m 3,560 ft / 1,085 m 160.00° 156.95° Asphalt 361 ft / 110 m 0 ft / 0 m
34 98 ft / 30 m 3,560 ft / 1,085 m 340.00° 336.95° Asphalt 384 ft / 117 m 0 ft / 0 m

Popular Alternatives